createdAt,value
2023-11-07T00:01:55.250Z,81.48
2023-11-07T00:04:25.918Z,81.89
2023-11-07T00:06:56.895Z,81.86
2023-11-07T00:09:29.389Z,81.95
2023-11-07T00:12:01.829Z,81.64
2023-11-07T00:14:34.239Z,81.58
2023-11-07T00:17:06.381Z,81.99
2023-11-07T00:19:39.145Z,81.66
2023-11-07T00:22:10.283Z,81.49
2023-11-07T00:24:44.278Z,81.80
2023-11-07T00:27:18.191Z,81.70
2023-11-07T00:29:50.307Z,81.98
2023-11-07T00:32:20.580Z,82.08
2023-11-07T00:34:54.016Z,81.54
2023-11-07T00:37:26.004Z,81.68
2023-11-07T00:39:58.609Z,81.10
2023-11-07T00:42:34.889Z,81.86
2023-11-07T00:45:11.852Z,81.73
2023-11-07T00:47:42.932Z,82.03
2023-11-07T00:50:14.159Z,82.13
2023-11-07T00:52:44.945Z,81.84
2023-11-07T00:55:16.559Z,81.98
2023-11-07T00:57:48.760Z,82.04
2023-11-07T01:00:24.605Z,82.23
2023-11-07T01:02:58.523Z,81.98
2023-11-07T01:05:34.344Z,82.20
2023-11-07T01:08:07.980Z,82.42
2023-11-07T01:10:42.629Z,82.29
2023-11-07T01:13:13.529Z,81.79
2023-11-07T01:15:51.836Z,82.36
2023-11-07T01:18:23.216Z,82.30
2023-11-07T01:20:55.327Z,81.93
2023-11-07T01:23:25.931Z,82.38
2023-11-07T01:25:58.472Z,82.63
2023-11-07T01:28:29.836Z,82.40
2023-11-07T01:31:05.034Z,82.43
2023-11-07T01:33:40.740Z,82.49
2023-11-07T01:36:13.123Z,82.51
2023-11-07T01:38:43.730Z,82.53
2023-11-07T01:41:14.771Z,82.32
2023-11-07T01:43:48.053Z,82.16
2023-11-07T01:46:19.143Z,82.07
2023-11-07T01:48:50.616Z,82.20
2023-11-07T01:51:22.788Z,82.20
2023-11-07T01:53:55.700Z,82.04
2023-11-07T01:56:30.799Z,81.93
2023-11-07T01:59:04.152Z,81.86
2023-11-07T02:01:41.331Z,82.14
2023-11-07T02:04:13.103Z,82.05
2023-11-07T02:06:49.102Z,82.09
2023-11-07T02:09:23.536Z,81.82
2023-11-07T02:11:54.419Z,81.93
2023-11-07T02:14:32.119Z,82.02
2023-11-07T02:17:03.645Z,82.27
2023-11-07T02:19:36.982Z,82.13
2023-11-07T02:22:14.959Z,82.25
2023-11-07T02:24:46.204Z,82.23
2023-11-07T02:27:21.258Z,82.08
2023-11-07T02:29:52.773Z,82.02
2023-11-07T02:32:24.459Z,82.08
2023-11-07T02:34:55.006Z,81.88
2023-11-07T02:37:26.056Z,81.98
2023-11-07T02:39:57.939Z,82.02
2023-11-07T02:42:35.764Z,81.51
2023-11-07T02:45:07.051Z,81.75
2023-11-07T02:47:42.289Z,81.35
2023-11-07T02:50:15.769Z,81.58
2023-11-07T02:52:47.831Z,81.87
2023-11-07T02:55:17.754Z,81.69
2023-11-07T02:57:48.653Z,81.74
2023-11-07T03:00:19.391Z,81.70
2023-11-07T03:02:51.971Z,81.88
2023-11-07T03:05:21.984Z,81.52
2023-11-07T03:07:52.188Z,81.60
2023-11-07T03:10:23.318Z,81.26
2023-11-07T03:12:53.978Z,80.78
2023-11-07T03:15:24.276Z,80.63
2023-11-07T03:17:54.563Z,80.58
2023-11-07T03:20:24.543Z,80.51
2023-11-07T03:22:55.320Z,80.17
2023-11-07T03:25:26.019Z,80.28
2023-11-07T03:27:56.906Z,80.78
2023-11-07T03:30:28.525Z,80.65
2023-11-07T03:32:59.574Z,80.34
2023-11-07T03:35:33.279Z,80.88
2023-11-07T03:38:04.149Z,80.32
2023-11-07T03:40:34.766Z,80.70
2023-11-07T03:43:05.622Z,80.85
2023-11-07T03:45:36.333Z,80.79
2023-11-07T03:48:07.500Z,80.72
2023-11-07T03:50:38.261Z,80.60
2023-11-07T03:53:08.667Z,80.58
2023-11-07T03:55:39.830Z,81.19
2023-11-07T03:58:11.143Z,81.14
2023-11-07T04:00:44.649Z,81.45
2023-11-07T04:03:14.985Z,81.66
2023-11-07T04:05:45.348Z,81.80
2023-11-07T04:08:15.551Z,82.44
2023-11-07T04:10:47.171Z,81.86
2023-11-07T04:13:17.849Z,81.49
2023-11-07T04:15:48.214Z,81.89
2023-11-07T04:18:18.394Z,82.29
2023-11-07T04:20:49.863Z,82.37
2023-11-07T04:23:20.760Z,82.13
2023-11-07T04:25:52.833Z,82.26
2023-11-07T04:28:23.584Z,82.43
2023-11-07T04:30:56.032Z,82.39
2023-11-07T04:33:27.356Z,82.72
2023-11-07T04:35:58.252Z,82.85
2023-11-07T04:38:28.866Z,82.87
2023-11-07T04:40:59.444Z,83.21
2023-11-07T04:43:32.345Z,83.25
2023-11-07T04:46:03.051Z,82.99
2023-11-07T04:48:37.462Z,82.86
2023-11-07T04:51:08.490Z,82.74
2023-11-07T04:53:40.802Z,82.52
2023-11-07T04:56:12.081Z,82.51
2023-11-07T04:58:56.690Z,82.37
2023-11-07T05:01:30.140Z,82.29
2023-11-07T05:04:00.998Z,82.35
2023-11-07T05:06:31.685Z,82.66
2023-11-07T05:09:02.764Z,82.43
2023-11-07T05:11:33.612Z,82.40
2023-11-07T05:14:03.751Z,82.63
2023-11-07T05:16:34.048Z,82.87
2023-11-07T05:19:04.480Z,83.12
2023-11-07T05:21:34.926Z,83.56
2023-11-07T05:24:09.440Z,83.36
2023-11-07T05:26:41.101Z,83.36
2023-11-07T05:29:11.483Z,83.63
2023-11-07T05:31:42.188Z,83.68
2023-11-07T05:34:12.382Z,83.75
2023-11-07T05:36:42.644Z,83.77
2023-11-07T05:39:12.560Z,83.64
2023-11-07T05:41:42.837Z,83.62
2023-11-07T05:44:14.597Z,83.69
2023-11-07T05:46:45.456Z,83.72
2023-11-07T05:49:16.026Z,83.65
2023-11-07T05:51:46.258Z,83.88
2023-11-07T05:54:17.813Z,83.75
2023-11-07T05:56:48.788Z,83.95
2023-11-07T05:59:19.612Z,83.87
2023-11-07T06:01:49.849Z,83.70
2023-11-07T06:04:38.647Z,83.61
2023-11-07T06:07:09.824Z,83.40
2023-11-07T06:09:41.358Z,83.00
2023-11-07T06:12:12.866Z,82.90
2023-11-07T06:14:44.399Z,82.68
2023-11-07T06:17:16.692Z,82.53
2023-11-07T06:19:49.741Z,82.52
2023-11-07T06:22:21.108Z,82.47
2023-11-07T06:24:51.989Z,82.39
2023-11-07T06:27:23.306Z,82.39
2023-11-07T06:29:53.625Z,82.26
2023-11-07T06:32:23.828Z,82.36
2023-11-07T06:34:54.540Z,82.52
2023-11-07T06:37:26.713Z,82.22
2023-11-07T06:39:57.517Z,82.61
2023-11-07T06:42:28.351Z,82.75
2023-11-07T06:44:58.974Z,82.67
2023-11-07T06:47:29.026Z,82.68
2023-11-07T06:49:59.195Z,82.75
2023-11-07T06:52:29.372Z,82.89
2023-11-07T06:54:59.610Z,83.16
2023-11-07T06:57:30.034Z,83.23
2023-11-07T07:00:00.316Z,82.93
2023-11-07T07:02:30.520Z,82.94
2023-11-07T07:05:01.721Z,82.80
2023-11-07T07:07:32.712Z,82.64
2023-11-07T07:10:04.819Z,82.55
2023-11-07T07:12:34.987Z,82.52
2023-11-07T07:15:08.651Z,82.36
2023-11-07T07:17:40.224Z,82.17
2023-11-07T07:20:14.600Z,82.05
2023-11-07T07:22:46.070Z,82.07
2023-11-07T07:25:23.593Z,82.08
2023-11-07T07:27:56.581Z,82.17
2023-11-07T07:30:30.177Z,82.21
2023-11-07T07:33:01.138Z,82.24
2023-11-07T07:35:35.857Z,82.29
2023-11-07T07:38:06.858Z,82.40
2023-11-07T07:40:37.520Z,82.55
2023-11-07T07:43:14.294Z,82.61
2023-11-07T07:45:45.233Z,82.92
2023-11-07T07:48:15.513Z,82.98
2023-11-07T07:50:49.351Z,83.06
2023-11-07T07:53:24.879Z,82.95
2023-11-07T07:55:58.436Z,83.06
2023-11-07T07:58:29.062Z,83.20
2023-11-07T08:00:59.442Z,83.63
2023-11-07T08:03:29.661Z,83.82
2023-11-07T08:06:00.409Z,83.70
2023-11-07T08:08:30.622Z,83.81
2023-11-07T08:11:00.820Z,83.86
2023-11-07T08:13:31.836Z,83.82
2023-11-07T08:16:10.184Z,83.77
2023-11-07T08:18:43.125Z,83.60
2023-11-07T08:21:13.426Z,83.64
2023-11-07T08:23:43.907Z,83.89
2023-11-07T08:26:14.581Z,83.78
2023-11-07T08:28:46.403Z,83.74
2023-11-07T08:31:16.797Z,83.73
2023-11-07T08:33:51.236Z,83.39
2023-11-07T08:36:22.536Z,83.25
2023-11-07T08:38:52.904Z,83.16
2023-11-07T08:41:26.968Z,83.11
2023-11-07T08:43:57.581Z,82.97
2023-11-07T08:46:28.837Z,82.90
2023-11-07T08:48:59.450Z,82.89
2023-11-07T08:51:31.396Z,82.90
2023-11-07T08:54:02.084Z,82.84
2023-11-07T08:56:32.003Z,82.79
2023-11-07T08:59:02.185Z,82.50
2023-11-07T09:01:32.998Z,82.40
2023-11-07T09:04:06.703Z,82.31
2023-11-07T09:06:41.094Z,82.28
2023-11-07T09:09:17.289Z,82.09
2023-11-07T09:11:50.049Z,82.04
2023-11-07T09:14:21.528Z,81.78
2023-11-07T09:16:52.837Z,81.85
2023-11-07T09:19:23.133Z,81.84
2023-11-07T09:21:54.065Z,81.49
2023-11-07T09:27:13.004Z,80.91
2023-11-07T09:29:44.361Z,81.02
2023-11-07T09:32:15.427Z,80.67
2023-11-07T09:34:46.090Z,80.50
2023-11-07T09:37:17.877Z,80.23
2023-11-07T09:39:48.808Z,80.20
2023-11-07T09:42:19.856Z,80.48
2023-11-07T09:44:53.555Z,80.68
2023-11-07T09:47:25.881Z,80.60
2023-11-07T09:49:59.183Z,80.48
2023-11-07T09:52:33.007Z,78.77
2023-11-07T09:55:11.976Z,72.11
2023-11-07T09:58:12.466Z,69.60
2023-11-07T10:00:47.834Z,69.13
2023-11-07T10:03:18.359Z,69.14
2023-11-07T10:05:53.590Z,70.66
2023-11-07T10:08:28.153Z,71.45
2023-11-07T10:11:18.342Z,72.80
2023-11-07T10:14:07.866Z,73.12
2023-11-07T10:16:44.200Z,73.19
2023-11-07T10:19:21.843Z,73.09
2023-11-07T10:21:55.032Z,73.69
2023-11-07T10:24:25.327Z,73.94
2023-11-07T10:27:04.554Z,73.09
2023-11-07T10:29:40.837Z,73.30
2023-11-07T10:32:15.018Z,72.82
2023-11-07T10:34:45.578Z,72.01
2023-11-07T10:37:21.839Z,72.57
2023-11-07T10:40:00.923Z,72.50
2023-11-07T10:42:37.836Z,72.12
2023-11-07T10:45:12.718Z,71.53
2023-11-07T10:47:45.556Z,72.04
2023-11-07T10:50:20.005Z,71.43
2023-11-07T10:52:50.804Z,70.57
2023-11-07T10:55:21.133Z,69.81
2023-11-07T10:58:00.800Z,69.88
2023-11-07T11:00:34.826Z,69.78
2023-11-07T11:03:13.551Z,68.81
2023-11-07T11:05:47.277Z,66.17
2023-11-07T11:08:22.811Z,67.15
2023-11-07T11:10:55.117Z,66.68
2023-11-07T11:13:27.417Z,66.51
2023-11-07T11:15:59.599Z,64.81
2023-11-07T11:18:49.182Z,65.30
2023-11-07T11:21:27.756Z,65.29
2023-11-07T11:24:40.849Z,65.46
2023-11-07T11:27:23.349Z,64.43
2023-11-07T11:29:54.240Z,64.37
2023-11-07T11:32:36.915Z,63.45
2023-11-07T11:35:20.119Z,66.18
2023-11-07T11:38:16.995Z,66.34
2023-11-07T11:41:04.419Z,66.29
2023-11-07T11:43:59.537Z,67.12
2023-11-07T11:46:40.617Z,66.38
2023-11-07T11:49:13.858Z,66.36
2023-11-07T11:51:46.511Z,65.86
2023-11-07T11:54:21.174Z,65.78
2023-11-07T11:56:56.407Z,65.68
2023-11-07T11:59:28.599Z,66.38
2023-11-07T12:02:06.949Z,64.66
2023-11-07T12:04:51.738Z,64.58
2023-11-07T12:07:26.455Z,65.21
2023-11-07T12:10:00.523Z,64.99
2023-11-07T12:12:32.824Z,65.05
2023-11-07T12:15:05.968Z,64.31
2023-11-07T12:17:50.696Z,65.52
2023-11-07T12:20:22.411Z,64.30
2023-11-07T12:22:54.582Z,65.35
2023-11-07T12:25:31.115Z,64.87
2023-11-07T12:28:09.149Z,65.06
2023-11-07T12:30:40.392Z,66.04
2023-11-07T12:33:12.285Z,65.43
2023-11-07T12:35:42.740Z,66.50
2023-11-07T12:38:16.478Z,65.87
2023-11-07T12:40:46.824Z,66.69
2023-11-07T12:43:19.125Z,65.91
2023-11-07T12:45:51.413Z,65.39
2023-11-07T12:48:31.008Z,67.07
2023-11-07T12:51:01.587Z,67.37
2023-11-07T12:53:33.244Z,67.37
2023-11-07T12:56:03.884Z,67.08
2023-11-07T12:58:34.200Z,67.72
2023-11-07T13:01:10.017Z,66.86
2023-11-07T13:03:41.255Z,67.44
2023-11-07T13:06:15.069Z,68.12
2023-11-07T13:08:49.935Z,66.89
2023-11-07T13:11:28.570Z,66.48
2023-11-07T13:13:59.665Z,66.26
2023-11-07T13:16:29.886Z,66.43
2023-11-07T13:19:00.088Z,66.61
2023-11-07T13:21:30.385Z,65.49
2023-11-07T13:24:00.603Z,66.20
2023-11-07T13:26:31.642Z,65.37
2023-11-07T13:29:02.320Z,65.22
2023-11-07T13:31:33.217Z,64.80
2023-11-07T13:34:03.258Z,62.90
2023-11-07T13:36:33.605Z,64.40
2023-11-07T13:39:06.427Z,64.41
2023-11-07T13:41:37.356Z,64.37
2023-11-07T13:44:12.798Z,63.63
2023-11-07T13:46:43.593Z,64.77
2023-11-07T13:49:14.583Z,64.07
2023-11-07T13:51:47.169Z,64.37
2023-11-07T13:54:17.932Z,65.01
2023-11-07T13:56:48.655Z,64.41
2023-11-07T13:59:20.694Z,64.96
2023-11-07T14:01:51.319Z,65.43
2023-11-07T14:04:21.469Z,65.91
2023-11-07T14:06:52.735Z,66.25
2023-11-07T14:09:26.106Z,66.45
2023-11-07T14:11:56.668Z,65.05
2023-11-07T14:14:27.575Z,65.41
2023-11-07T14:16:57.744Z,66.09
2023-11-07T14:19:28.995Z,67.79
2023-11-07T14:21:59.407Z,65.73
2023-11-07T14:24:30.443Z,65.70
2023-11-07T14:27:01.295Z,66.57
2023-11-07T14:29:47.532Z,65.50
2023-11-07T14:32:23.197Z,66.95
2023-11-07T14:34:54.090Z,68.03
2023-11-07T14:37:25.845Z,67.74
2023-11-07T14:39:57.618Z,67.37
2023-11-07T14:42:30.434Z,67.29
2023-11-07T14:45:01.418Z,66.40
2023-11-07T14:47:31.738Z,66.61
2023-11-07T14:50:03.386Z,67.00
2023-11-07T14:52:34.423Z,67.66
2023-11-07T14:55:06.805Z,66.26
2023-11-07T14:57:37.465Z,66.51
2023-11-07T15:00:11.911Z,66.14
2023-11-07T15:02:43.278Z,67.89
2023-11-07T15:05:13.911Z,66.81
2023-11-07T15:07:44.643Z,66.04
2023-11-07T15:10:15.576Z,66.43
2023-11-07T15:12:46.134Z,66.60
2023-11-07T15:15:17.720Z,66.10
2023-11-07T15:17:51.906Z,66.78
2023-11-07T15:20:22.655Z,67.39
2023-11-07T15:22:52.790Z,66.76
2023-11-07T15:25:27.250Z,66.90
2023-11-07T15:27:58.008Z,66.74
2023-11-07T15:30:33.484Z,67.23
2023-11-07T15:33:06.290Z,67.84
2023-11-07T15:35:39.135Z,67.23
2023-11-07T15:38:09.712Z,67.16
2023-11-07T15:40:42.043Z,67.06
2023-11-07T15:43:13.723Z,67.04
2023-11-07T15:45:46.146Z,67.58
2023-11-07T15:48:16.845Z,66.71
2023-11-07T15:50:47.684Z,67.32
2023-11-07T15:53:18.328Z,66.29
2023-11-07T15:55:48.489Z,66.51
2023-11-07T15:58:19.483Z,67.17
2023-11-07T16:00:53.006Z,67.18
2023-11-07T16:03:24.073Z,66.62
2023-11-07T16:05:54.740Z,67.68
2023-11-07T16:08:26.985Z,66.83
2023-11-07T16:10:57.766Z,67.56
2023-11-07T16:13:29.887Z,66.62
2023-11-07T16:16:02.556Z,66.84
2023-11-07T16:18:34.082Z,67.45
2023-11-07T16:21:09.687Z,67.90
2023-11-07T16:23:40.155Z,67.03
2023-11-07T16:29:02.231Z,67.25
2023-11-07T16:31:33.633Z,67.23
2023-11-07T16:34:03.969Z,68.01
2023-11-07T16:36:34.303Z,67.49
2023-11-07T16:39:05.747Z,68.42
2023-11-07T16:41:37.813Z,68.54
2023-11-07T16:44:08.931Z,68.01
2023-11-07T16:46:39.677Z,67.82
2023-11-07T16:49:09.939Z,68.14
2023-11-07T16:51:40.294Z,68.42
2023-11-07T16:54:11.261Z,68.54
2023-11-07T16:56:42.559Z,68.32
2023-11-07T16:59:14.134Z,68.62
2023-11-07T17:01:44.750Z,68.72
2023-11-07T17:04:15.044Z,68.31
2023-11-07T17:06:46.523Z,68.79
2023-11-07T17:09:18.562Z,68.17
2023-11-07T17:11:55.179Z,68.72
2023-11-07T17:14:25.558Z,68.87
2023-11-07T17:16:57.019Z,69.18
2023-11-07T17:19:28.007Z,69.18
2023-11-07T17:21:59.875Z,69.40
2023-11-07T17:24:30.450Z,69.38
2023-11-07T17:27:02.183Z,69.26
2023-11-07T17:29:34.153Z,69.24
2023-11-07T17:32:06.278Z,69.39
2023-11-07T17:34:37.398Z,69.70
2023-11-07T17:37:09.203Z,69.41
2023-11-07T17:39:40.570Z,69.72
2023-11-07T17:42:12.553Z,69.41
2023-11-07T17:44:44.978Z,70.10
2023-11-07T17:47:17.820Z,69.48
2023-11-07T17:49:49.998Z,70.67
2023-11-07T17:52:22.342Z,70.32
2023-11-07T17:54:54.909Z,70.79
2023-11-07T17:57:26.737Z,70.96
2023-11-07T17:59:57.680Z,70.43
2023-11-07T18:02:31.099Z,70.77
2023-11-07T18:05:01.297Z,70.81
2023-11-07T18:07:31.786Z,70.95
2023-11-07T18:10:02.345Z,71.81
2023-11-07T18:12:32.537Z,72.07
2023-11-07T18:15:03.228Z,71.56
2023-11-07T18:17:34.814Z,71.41
2023-11-07T18:20:09.385Z,70.98
2023-11-07T18:22:43.283Z,71.98
2023-11-07T18:25:15.375Z,71.62
2023-11-07T18:27:46.935Z,71.76
2023-11-07T18:30:17.924Z,71.85
2023-11-07T18:32:48.806Z,72.05
2023-11-07T18:35:19.043Z,71.80
2023-11-07T18:37:49.287Z,72.50
2023-11-07T18:40:20.720Z,71.85
2023-11-07T18:42:51.981Z,72.09
2023-11-07T18:45:22.589Z,72.17
2023-11-07T18:47:54.098Z,72.80
2023-11-07T18:50:24.585Z,72.94
2023-11-07T18:52:55.920Z,72.84
2023-11-07T18:55:27.098Z,72.21
2023-11-07T18:57:58.490Z,72.97
2023-11-07T19:00:29.349Z,72.79
2023-11-07T19:02:59.612Z,73.15
2023-11-07T19:05:30.176Z,72.64
2023-11-07T19:08:00.564Z,73.55
2023-11-07T19:10:31.027Z,73.70
2023-11-07T19:13:01.207Z,73.56
2023-11-07T19:15:31.824Z,73.53
2023-11-07T19:18:02.587Z,73.95
2023-11-07T19:20:33.769Z,74.33
2023-11-07T19:23:04.885Z,74.23
2023-11-07T19:25:35.802Z,74.31
2023-11-07T19:28:06.076Z,74.39
2023-11-07T19:30:36.252Z,74.59
2023-11-07T19:33:06.928Z,74.81
2023-11-07T19:35:38.353Z,74.86
2023-11-07T19:38:08.573Z,74.69
2023-11-07T19:40:41.714Z,74.75
2023-11-07T19:43:12.464Z,74.93
2023-11-07T19:45:45.799Z,75.16
2023-11-07T19:48:17.049Z,75.53
2023-11-07T19:50:49.286Z,75.93
2023-11-07T19:53:19.540Z,75.58
2023-11-07T19:55:50.194Z,75.62
2023-11-07T19:58:21.607Z,75.83
2023-11-07T20:00:55.277Z,76.46
2023-11-07T20:03:31.845Z,76.78
2023-11-07T20:06:02.115Z,76.55
2023-11-07T20:08:32.983Z,76.70
2023-11-07T20:11:06.295Z,76.82
2023-11-07T20:13:37.416Z,77.02
2023-11-07T20:16:10.895Z,77.07
2023-11-07T20:18:42.163Z,77.01
2023-11-07T20:21:12.999Z,77.38
2023-11-07T20:23:44.858Z,77.75
2023-11-07T20:26:15.053Z,77.75
2023-11-07T20:28:46.606Z,77.97
2023-11-07T20:31:22.932Z,76.98
2023-11-07T20:33:54.026Z,77.91
2023-11-07T20:36:25.231Z,78.37
2023-11-07T20:38:56.706Z,78.64
2023-11-07T20:41:27.042Z,78.82
2023-11-07T20:43:57.740Z,79.26
2023-11-07T20:46:33.801Z,79.27
2023-11-07T20:49:09.304Z,79.65
2023-11-07T20:51:40.583Z,79.76
2023-11-07T20:54:15.204Z,80.00
2023-11-07T20:56:46.786Z,79.71
2023-11-07T20:59:17.269Z,80.28
2023-11-07T21:01:47.916Z,80.44
2023-11-07T21:04:18.462Z,80.75
2023-11-07T21:06:48.693Z,80.43
2023-11-07T21:09:20.108Z,80.78
2023-11-07T21:11:52.492Z,81.15
2023-11-07T21:14:23.684Z,81.18
2023-11-07T21:16:53.852Z,81.42
2023-11-07T21:19:27.146Z,81.63
2023-11-07T21:22:02.276Z,81.76
2023-11-07T21:24:34.133Z,81.92
2023-11-07T21:27:06.034Z,81.83
2023-11-07T21:29:36.663Z,81.96
2023-11-07T21:32:08.120Z,82.19
2023-11-07T21:34:39.865Z,82.06
2023-11-07T21:37:10.583Z,82.13
2023-11-07T21:39:42.477Z,82.39
2023-11-07T21:42:12.768Z,82.37
2023-11-07T21:44:44.988Z,82.44
2023-11-07T21:47:19.240Z,82.84
2023-11-07T21:49:49.875Z,82.92
2023-11-07T21:52:20.532Z,83.03
2023-11-07T21:54:51.473Z,82.91
2023-11-07T21:57:22.660Z,83.07
2023-11-07T21:59:53.716Z,83.12
2023-11-07T22:02:24.658Z,83.08
2023-11-07T22:04:56.301Z,83.45
2023-11-07T22:07:27.830Z,83.28
2023-11-07T22:09:59.316Z,83.39
2023-11-07T22:12:29.779Z,83.36
2023-11-07T22:15:00.164Z,83.25
2023-11-07T22:17:31.412Z,83.43
2023-11-07T22:20:01.798Z,83.53
2023-11-07T22:22:32.787Z,83.50
2023-11-07T22:25:03.739Z,83.53
2023-11-07T22:27:37.527Z,83.84
2023-11-07T22:30:12.352Z,83.89
2023-11-07T22:32:47.580Z,83.85
2023-11-07T22:35:18.942Z,83.07
2023-11-07T22:37:49.525Z,83.92
2023-11-07T22:40:20.577Z,84.12
2023-11-07T22:42:51.762Z,84.19
2023-11-07T22:45:22.094Z,84.43
2023-11-07T22:47:52.663Z,84.58
2023-11-07T22:50:22.865Z,84.63
2023-11-07T22:52:54.036Z,84.63
2023-11-07T22:55:24.781Z,84.75
2023-11-07T22:57:54.928Z,84.70
2023-11-07T23:00:33.029Z,84.80
2023-11-07T23:03:06.739Z,84.75
2023-11-07T23:05:39.479Z,84.72
2023-11-07T23:08:12.968Z,84.64
2023-11-07T23:10:45.104Z,84.88
2023-11-07T23:13:17.936Z,84.96
2023-11-07T23:15:52.883Z,84.75
2023-11-07T23:18:25.037Z,84.94
2023-11-07T23:20:55.649Z,84.88
2023-11-07T23:23:28.010Z,84.88
2023-11-07T23:25:59.234Z,84.80
2023-11-07T23:28:29.932Z,84.93
2023-11-07T23:31:02.030Z,84.95
2023-11-07T23:33:32.906Z,85.10
2023-11-07T23:36:03.863Z,85.14
2023-11-07T23:38:35.219Z,85.28
2023-11-07T23:41:06.609Z,85.27
2023-11-07T23:43:37.175Z,85.47
2023-11-07T23:46:07.437Z,85.57
2023-11-07T23:48:37.824Z,85.40
2023-11-07T23:51:14.488Z,85.49
2023-11-07T23:53:44.429Z,85.61
2023-11-07T23:56:15.327Z,85.69
2023-11-07T23:58:46.263Z,85.76
